Time;durP1;ratioP1;P1;durP2;ratioP2;P2;SDS_P1;SDS_P2;PMS_P1;PMS_P2;Temp;Humidity;BMP_temperature;BMP_pressure;BME280_temperature;BME280_humidity;BME280_pressure;Samples;Min_cycle;Max_cycle;Signal;HPM_P1;HPM_P2
2020/12/20 00:01:44;;;;;;;7.80;4.40;;;2.80;99.90;;;;;;5115840;28;20427;-83
2020/12/20 00:04:12;;;;;;;6.90;4.63;;;2.80;99.90;;;;;;5052136;28;20448;-84
2020/12/20 00:06:41;;;;;;;6.70;4.60;;;2.80;99.90;;;;;;5032089;28;20411;-84
2020/12/20 00:09:08;;;;;;;6.60;5.10;;;2.70;99.90;;;;;;4992996;28;20414;-84
2020/12/20 00:11:40;;;;;;;8.37;7.07;;;2.70;99.90;;;;;;5005117;28;20392;-83
2020/12/20 00:14:26;;;;;;;4.17;3.77;;;2.80;99.90;;;;;;5037661;28;20465;-83
2020/12/20 00:16:54;;;;;;;5.77;5.17;;;2.70;99.90;;;;;;5021486;28;20813;-83
2020/12/20 00:19:19;;;;;;;7.10;4.97;;;2.60;99.90;;;;;;5036213;28;20458;-83
2020/12/20 00:21:45;;;;;;;10.00;6.80;;;2.70;99.90;;;;;;5036464;28;20806;-83
2020/12/20 00:24:11;;;;;;;6.63;3.87;;;2.60;99.90;;;;;;5019517;28;20265;-83
2020/12/20 00:26:41;;;;;;;5.10;3.97;;;2.60;99.90;;;;;;5036435;28;20565;-83
2020/12/20 00:29:07;;;;;;;6.60;4.77;;;2.60;99.90;;;;;;5035749;28;20411;-83
2020/12/20 00:31:33;;;;;;;5.83;3.83;;;2.60;99.90;;;;;;5037031;28;20461;-84
2020/12/20 00:33:58;;;;;;;9.53;5.13;;;2.60;99.90;;;;;;5021647;28;20500;-84
2020/12/20 00:36:24;;;;;;;8.60;4.50;;;2.60;99.90;;;;;;5099219;28;20216;-83
2020/12/20 00:38:50;;;;;;;6.30;4.83;;;2.60;99.90;;;;;;5099405;28;20249;-83
2020/12/20 00:41:16;;;;;;;8.23;4.90;;;2.60;99.90;;;;;;5099833;28;20159;-85
2020/12/20 00:43:41;;;;;;;10.73;6.63;;;2.40;99.90;;;;;;5081579;28;20292;-83
2020/12/20 00:46:07;;;;;;;5.17;4.13;;;2.60;99.90;;;;;;5099976;28;20254;-84
2020/12/20 00:48:33;;;;;;;5.43;4.10;;;2.60;99.90;;;;;;5100341;28;20163;-83
2020/12/20 00:51:00;;;;;;;4.60;4.20;;;2.60;99.90;;;;;;5100783;28;20225;-84
2020/12/20 00:53:26;;;;;;;5.10;4.50;;;2.60;99.90;;;;;;5100799;28;20163;-84
2020/12/20 00:55:52;;;;;;;5.27;4.53;;;2.50;99.90;;;;;;5102911;28;20429;-83
2020/12/20 00:58:18;;;;;;;6.17;4.30;;;2.50;99.90;;;;;;5104135;28;20202;-84
2020/12/20 01:00:43;;;;;;;6.80;4.77;;;2.30;99.90;;;;;;5108676;28;20166;-82
2020/12/20 01:03:09;;;;;;;4.30;3.87;;;2.40;99.90;;;;;;5098656;28;20248;-82
2020/12/20 01:05:35;;;;;;;6.50;4.37;;;2.40;99.90;;;;;;5115979;28;20520;-80
2020/12/20 01:08:00;;;;;;;6.30;4.43;;;2.30;99.90;;;;;;5103485;28;20246;-83
2020/12/20 01:10:26;;;;;;;7.53;5.50;;;2.50;99.90;;;;;;5098282;28;20199;-82
2020/12/20 01:12:52;;;;;;;3.70;3.37;;;2.70;99.90;;;;;;5098892;28;20159;-84
2020/12/20 01:15:18;;;;;;;8.37;4.83;;;2.70;99.90;;;;;;5097611;28;20587;-85
2020/12/20 01:17:43;;;;;;;7.90;5.10;;;2.60;99.90;;;;;;5098062;28;20162;-83
2020/12/20 01:20:12;;;;;;;7.43;4.10;;;2.60;99.90;;;;;;5059997;28;20246;-83
2020/12/20 01:22:38;;;;;;;8.27;4.60;;;2.60;99.90;;;;;;5077334;28;20394;-84
2020/12/20 01:25:04;;;;;;;3.30;3.00;;;2.70;99.90;;;;;;5077127;28;20280;-83
2020/12/20 01:27:30;;;;;;;6.47;4.70;;;2.50;99.90;;;;;;5076915;28;20596;-82
2020/12/20 01:29:56;;;;;;;4.13;3.37;;;2.50;99.90;;;;;;5076906;28;20400;-83
2020/12/20 01:32:21;;;;;;;6.70;4.03;;;2.40;99.90;;;;;;5077318;28;20195;-83
2020/12/20 01:34:47;;;;;;;7.20;6.00;;;2.50;99.90;;;;;;5077002;28;20159;-83
2020/12/20 01:37:13;;;;;;;7.77;5.47;;;2.60;99.90;;;;;;5078898;28;20159;-83
2020/12/20 01:39:38;;;;;;;6.63;4.60;;;2.30;99.90;;;;;;5076762;28;20254;-83
2020/12/20 01:42:04;;;;;;;8.03;4.37;;;2.50;99.90;;;;;;5076034;28;20164;-83
2020/12/20 01:44:30;;;;;;;11.43;5.30;;;2.60;99.90;;;;;;5076250;28;20210;-84
2020/12/20 01:46:56;;;;;;;8.20;5.27;;;2.60;99.90;;;;;;5059137;28;20159;-84
2020/12/20 01:49:22;;;;;;;5.40;4.37;;;2.60;99.90;;;;;;5076565;28;20201;-84
2020/12/20 01:51:49;;;;;;;7.73;5.33;;;2.60;99.90;;;;;;5078903;28;20373;-84
2020/12/20 01:54:15;;;;;;;4.40;3.50;;;2.70;99.90;;;;;;5079492;28;20455;-84
2020/12/20 01:56:41;;;;;;;6.90;4.03;;;2.70;99.90;;;;;;5077535;28;20821;-83
2020/12/20 01:59:07;;;;;;;4.87;4.47;;;2.60;99.90;;;;;;5077763;28;20167;-83
2020/12/20 02:01:33;;;;;;;5.87;4.60;;;2.80;99.90;;;;;;5077420;28;20745;-84
2020/12/20 02:03:59;;;;;;;8.73;5.30;;;2.70;99.90;;;;;;5077686;28;20401;-83
2020/12/20 02:06:25;;;;;;;5.93;5.33;;;2.70;99.90;;;;;;5077459;28;20159;-84
2020/12/20 02:08:50;;;;;;;4.00;3.70;;;2.50;99.90;;;;;;5077048;28;20174;-84
2020/12/20 02:11:17;;;;;;;6.63;4.20;;;2.50;99.90;;;;;;5078131;28;20159;-84
2020/12/20 02:13:44;;;;;;;6.67;4.33;;;2.60;99.90;;;;;;5077767;28;20166;-83
2020/12/20 02:16:12;;;;;;;5.40;4.30;;;2.70;99.90;;;;;;5074321;28;20440;-83
2020/12/20 02:18:38;;;;;;;6.60;4.97;;;2.70;99.90;;;;;;5076448;28;20429;-82
2020/12/20 02:21:18;;;;;;;8.57;5.27;;;2.70;99.90;;;;;;5087394;28;20486;-84
2020/12/20 02:23:47;;;;;;;7.23;5.50;;;2.60;99.90;;;;;;5095978;28;20396;-83
2020/12/20 02:26:15;;;;;;;6.40;5.80;;;2.40;99.90;;;;;;5096455;28;20415;-83
2020/12/20 02:28:40;;;;;;;6.00;4.80;;;2.30;99.90;;;;;;5078198;28;20721;-82
2020/12/20 02:31:07;;;;;;;12.63;5.77;;;2.50;99.90;;;;;;5078059;28;20450;-83
2020/12/20 02:33:33;;;;;;;5.23;4.50;;;2.40;99.90;;;;;;5096474;28;20159;-82
2020/12/20 02:36:00;;;;;;;5.47;4.90;;;2.40;99.90;;;;;;5096500;28;20396;-82
2020/12/20 02:38:28;;;;;;;6.13;4.67;;;2.30;99.90;;;;;;5078813;28;20401;-82
2020/12/20 02:40:55;;;;;;;4.03;3.67;;;2.40;99.90;;;;;;5096325;28;20722;-83
2020/12/20 02:43:21;;;;;;;4.80;4.10;;;2.40;99.90;;;;;;5096299;28;20911;-84
2020/12/20 02:45:47;;;;;;;6.13;4.50;;;2.40;99.90;;;;;;5096531;28;20436;-81
2020/12/20 02:48:13;;;;;;;5.17;3.97;;;2.50;99.90;;;;;;5096494;28;20541;-83
2020/12/20 02:50:39;;;;;;;5.30;4.70;;;2.60;99.90;;;;;;5096243;28;20170;-83
2020/12/20 02:53:04;;;;;;;7.30;5.27;;;2.70;99.90;;;;;;5096597;28;20433;-82
2020/12/20 02:55:30;;;;;;;7.83;4.27;;;2.60;99.90;;;;;;5096914;28;20163;-82
2020/12/20 02:57:56;;;;;;;5.57;4.20;;;2.60;99.90;;;;;;5101553;28;20392;-83
2020/12/20 03:00:23;;;;;;;6.20;4.90;;;2.70;99.90;;;;;;5116295;28;20385;-83
2020/12/20 03:02:49;;;;;;;6.67;4.60;;;2.70;99.90;;;;;;5115778;28;20225;-83
2020/12/20 03:05:17;;;;;;;3.63;3.37;;;2.80;99.90;;;;;;5116999;28;20432;-83
2020/12/20 03:07:44;;;;;;;5.60;5.10;;;2.80;99.90;;;;;;5116385;28;20147;-83
2020/12/20 03:10:10;;;;;;;5.40;4.47;;;2.60;99.90;;;;;;5098952;28;20373;-83
2020/12/20 03:12:36;;;;;;;9.50;6.03;;;2.60;99.90;;;;;;5105582;28;20412;-84
2020/12/20 03:15:04;;;;;;;6.37;5.13;;;2.60;99.90;;;;;;5082274;28;20422;-84
2020/12/20 03:17:30;;;;;;;4.57;4.03;;;2.60;99.90;;;;;;5100612;28;20282;-84
2020/12/20 03:19:56;;;;;;;6.50;5.13;;;2.60;99.90;;;;;;5100039;28;20463;-84
2020/12/20 03:22:22;;;;;;;4.43;4.03;;;2.60;99.90;;;;;;5099330;28;20741;-84
2020/12/20 03:24:48;;;;;;;7.47;5.30;;;2.60;99.90;;;;;;5098871;28;20455;-84
2020/12/20 03:27:13;;;;;;;5.33;4.40;;;2.40;99.90;;;;;;5099317;28;20247;-84
2020/12/20 03:29:39;;;;;;;6.33;4.40;;;2.30;99.90;;;;;;5099468;28;20637;-83
2020/12/20 03:32:05;;;;;;;6.03;5.17;;;2.40;99.90;;;;;;5099261;28;20162;-83
2020/12/20 03:34:31;;;;;;;7.20;4.00;;;2.40;99.90;;;;;;5099495;28;20165;-84
2020/12/20 03:36:57;;;;;;;8.60;5.90;;;2.50;99.90;;;;;;5099133;28;20397;-84
2020/12/20 03:39:23;;;;;;;6.00;4.07;;;2.30;99.90;;;;;;5081142;28;20158;-83
2020/12/20 03:41:49;;;;;;;7.10;5.53;;;2.30;99.90;;;;;;5099082;28;20731;-84
2020/12/20 03:44:15;;;;;;;9.00;5.83;;;2.20;99.90;;;;;;5098984;28;20368;-83
2020/12/20 03:46:42;;;;;;;5.43;4.30;;;2.30;99.90;;;;;;5098827;28;20163;-84
2020/12/20 03:49:07;;;;;;;7.70;4.93;;;2.40;99.90;;;;;;5098809;28;20265;-83
2020/12/20 03:51:33;;;;;;;6.50;4.50;;;2.50;99.90;;;;;;5098652;28;20488;-83
2020/12/20 03:53:59;;;;;;;6.30;5.60;;;2.40;99.90;;;;;;5101148;28;20161;-84
2020/12/20 03:56:25;;;;;;;5.27;4.63;;;2.30;99.90;;;;;;5104586;28;20155;-84
2020/12/20 03:58:50;;;;;;;5.70;5.20;;;2.30;99.90;;;;;;5104246;28;20191;-83
2020/12/20 04:01:16;;;;;;;10.30;4.50;;;2.30;99.90;;;;;;5105678;28;20166;-83
2020/12/20 04:03:42;;;;;;;6.30;4.00;;;2.20;99.90;;;;;;5116406;28;20189;-82
2020/12/20 04:06:08;;;;;;;7.97;5.07;;;2.40;99.90;;;;;;5100884;28;20448;-81
2020/12/20 04:08:34;;;;;;;6.70;4.40;;;2.30;99.90;;;;;;5113738;28;20246;-83
2020/12/20 04:11:00;;;;;;;5.70;5.20;;;2.40;99.90;;;;;;5098966;28;20201;-83
2020/12/20 04:13:26;;;;;;;4.53;4.13;;;2.30;99.90;;;;;;5098794;28;20163;-83
2020/12/20 04:15:52;;;;;;;5.47;4.17;;;2.30;99.90;;;;;;5080295;28;20385;-84
2020/12/20 04:18:18;;;;;;;6.50;4.90;;;2.30;99.90;;;;;;5080638;28;20151;-83
2020/12/20 04:20:43;;;;;;;6.30;4.90;;;2.40;99.90;;;;;;5097787;28;20223;-83
2020/12/20 04:23:09;;;;;;;11.70;4.77;;;2.20;99.90;;;;;;5098596;28;20154;-83
2020/12/20 04:25:35;;;;;;;7.07;5.27;;;2.20;99.90;;;;;;5079985;28;20190;-83
2020/12/20 04:28:00;;;;;;;7.20;4.20;;;2.10;99.90;;;;;;5097950;28;20166;-84
2020/12/20 04:30:27;;;;;;;9.93;6.30;;;2.20;99.90;;;;;;5080100;28;20163;-84
2020/12/20 04:32:53;;;;;;;8.13;7.33;;;2.20;99.90;;;;;;5098370;28;20155;-83
2020/12/20 04:35:19;;;;;;;11.13;7.20;;;2.20;99.90;;;;;;5098582;28;20908;-84
2020/12/20 04:37:45;;;;;;;8.00;5.10;;;2.30;99.90;;;;;;5099375;28;20194;-83
2020/12/20 04:40:10;;;;;;;8.07;5.60;;;2.20;99.90;;;;;;5098376;28;20217;-83
2020/12/20 04:42:36;;;;;;;10.50;5.77;;;2.20;99.90;;;;;;5098234;28;20167;-83
2020/12/20 04:45:03;;;;;;;7.13;5.13;;;2.00;99.90;;;;;;5098539;28;20323;-82
2020/12/20 04:47:30;;;;;;;12.33;6.30;;;1.90;99.90;;;;;;5096363;28;20178;-84
2020/12/20 04:49:56;;;;;;;7.83;5.20;;;2.10;99.90;;;;;;5098418;28;20406;-84
2020/12/20 04:52:22;;;;;;;8.17;4.77;;;2.00;99.90;;;;;;5099180;28;20730;-84
2020/12/20 04:54:48;;;;;;;6.23;5.17;;;2.00;99.90;;;;;;5098323;28;20383;-83
2020/12/20 04:57:15;;;;;;;7.27;5.00;;;2.10;99.90;;;;;;5080401;28;20793;-83
2020/12/20 04:59:41;;;;;;;6.70;5.23;;;2.30;99.90;;;;;;5098044;28;20171;-82
2020/12/20 05:02:08;;;;;;;10.87;5.10;;;2.40;99.90;;;;;;5097305;28;20401;-83
2020/12/20 05:04:36;;;;;;;6.20;4.97;;;2.40;99.90;;;;;;5058755;28;20444;-83
2020/12/20 05:07:03;;;;;;;8.40;5.80;;;2.40;99.90;;;;;;5077794;28;20385;-83
2020/12/20 05:09:29;;;;;;;9.40;6.40;;;2.40;99.90;;;;;;5077203;28;20390;-82
2020/12/20 05:11:54;;;;;;;8.40;5.87;;;2.50;99.90;;;;;;5059851;28;20385;-83
2020/12/20 05:14:33;;;;;;;6.43;5.93;;;2.60;99.90;;;;;;5059296;28;20958;-83
2020/12/20 05:16:58;;;;;;;8.60;6.63;;;2.50;99.90;;;;;;5059285;28;20170;-84
2020/12/20 05:19:32;;;;;;;6.27;4.17;;;2.40;99.90;;;;;;5077777;28;20815;-84
2020/12/20 05:22:15;;;;;;;10.60;4.97;;;2.20;99.90;;;;;;5077795;28;20310;-83
2020/12/20 05:24:43;;;;;;;6.47;5.47;;;2.00;99.90;;;;;;5077235;28;20441;-83
2020/12/20 05:27:23;;;;;;;8.00;4.93;;;2.00;99.90;;;;;;5076791;28;20386;-83
2020/12/20 05:29:50;;;;;;;7.30;5.63;;;2.00;99.90;;;;;;5077422;28;20846;-83
2020/12/20 05:32:26;;;;;;;7.03;4.20;;;2.20;99.90;;;;;;5076991;28;20859;-84
2020/12/20 05:35:05;;;;;;;9.47;5.60;;;2.20;99.90;;;;;;5077618;28;20945;-84
2020/12/20 05:37:35;;;;;;;7.67;5.27;;;2.10;99.90;;;;;;5077400;28;20389;-84
2020/12/20 05:40:05;;;;;;;6.77;5.30;;;2.00;99.90;;;;;;5077559;28;20426;-83
2020/12/20 05:42:31;;;;;;;5.57;4.80;;;2.00;99.90;;;;;;5078785;28;20510;-84
2020/12/20 05:45:07;;;;;;;7.10;6.10;;;2.20;99.90;;;;;;5080479;28;20549;-84
2020/12/20 05:47:33;;;;;;;9.73;7.40;;;2.20;99.90;;;;;;5096517;28;20162;-84
2020/12/20 05:49:58;;;;;;;7.17;5.03;;;2.40;99.90;;;;;;5079606;28;20386;-81
2020/12/20 05:52:24;;;;;;;7.43;5.43;;;2.40;99.90;;;;;;5097216;28;20413;-82
2020/12/20 05:54:50;;;;;;;10.63;6.30;;;2.20;99.90;;;;;;5096931;28;20163;-83
2020/12/20 05:57:18;;;;;;;8.43;5.57;;;2.30;99.90;;;;;;5096581;28;20238;-83
2020/12/20 05:59:46;;;;;;;6.07;5.30;;;2.20;99.90;;;;;;5079079;28;20171;-83
2020/12/20 06:02:13;;;;;;;6.13;4.70;;;2.20;99.90;;;;;;5076875;28;20386;-83
2020/12/20 06:04:40;;;;;;;10.00;4.20;;;2.20;99.90;;;;;;5076374;28;20449;-83
2020/12/20 06:07:08;;;;;;;7.50;5.60;;;2.30;99.90;;;;;;5076895;28;20822;-83
2020/12/20 06:09:57;;;;;;;9.27;5.93;;;2.30;99.90;;;;;;5076934;28;20512;-83
2020/12/20 06:12:25;;;;;;;11.23;6.10;;;2.50;99.90;;;;;;5076958;28;20439;-82
2020/12/20 06:14:52;;;;;;;7.73;5.10;;;2.30;99.90;;;;;;5058996;28;20481;-83
2020/12/20 06:17:21;;;;;;;6.40;4.87;;;2.20;99.90;;;;;;5076491;28;20407;-83
2020/12/20 06:20:05;;;;;;;8.90;4.90;;;2.20;99.90;;;;;;5076713;28;20472;-82
2020/12/20 06:22:33;;;;;;;7.80;5.63;;;2.40;99.90;;;;;;5044274;28;20455;-82
2020/12/20 06:25:05;;;;;;;10.03;6.63;;;2.40;99.90;;;;;;5076602;28;20879;-82
2020/12/20 06:27:33;;;;;;;8.87;7.93;;;2.50;99.90;;;;;;5058937;28;20444;-82
2020/12/20 06:30:03;;;;;;;8.50;4.97;;;2.60;99.90;;;;;;5076628;28;20386;-82
2020/12/20 06:32:48;;;;;;;9.33;5.20;;;2.80;99.90;;;;;;5080517;28;20489;-82
2020/12/20 06:35:22;;;;;;;8.23;6.40;;;2.80;99.90;;;;;;5063671;28;20401;-82
2020/12/20 06:37:47;;;;;;;8.73;5.30;;;2.80;99.90;;;;;;5079931;28;20406;-82
2020/12/20 06:40:20;;;;;;;7.57;6.20;;;2.90;99.90;;;;;;5062783;28;20397;-84
2020/12/20 06:42:46;;;;;;;10.20;6.50;;;2.80;99.90;;;;;;5080874;28;20159;-82
2020/12/20 06:45:18;;;;;;;7.10;5.20;;;2.60;99.90;;;;;;5080818;28;20594;-82
2020/12/20 06:47:53;;;;;;;7.50;5.57;;;2.50;99.90;;;;;;5080021;28;20908;-83
2020/12/20 06:50:44;;;;;;;5.40;4.60;;;2.40;99.90;;;;;;5080188;28;20412;-82
2020/12/20 06:53:11;;;;;;;6.80;5.20;;;2.30;99.90;;;;;;5080152;28;20405;-83
2020/12/20 06:55:37;;;;;;;10.17;6.30;;;2.50;99.90;;;;;;5080972;28;20405;-82
2020/12/20 06:58:12;;;;;;;10.00;6.43;;;2.40;99.90;;;;;;5080956;28;20776;-84
2020/12/20 07:00:43;;;;;;;8.20;5.73;;;2.60;99.90;;;;;;5080290;28;20435;-83
2020/12/20 07:03:31;;;;;;;15.60;5.80;;;2.80;99.90;;;;;;5081057;28;20394;-82
2020/12/20 07:06:13;;;;;;;6.57;5.30;;;2.70;99.90;;;;;;5079899;28;20435;-83
2020/12/20 07:08:39;;;;;;;9.10;4.83;;;2.80;99.90;;;;;;5065291;28;20393;-84
2020/12/20 07:11:16;;;;;;;9.43;6.50;;;2.90;99.90;;;;;;5082670;28;20480;-83
2020/12/20 07:13:44;;;;;;;8.43;5.20;;;3.00;99.90;;;;;;5081306;28;20711;-84
2020/12/20 07:16:13;;;;;;;6.03;4.47;;;2.90;99.90;;;;;;5080449;28;20408;-84
2020/12/20 07:18:43;;;;;;;5.37;4.30;;;3.10;99.90;;;;;;5080069;28;20390;-83
2020/12/20 07:21:30;;;;;;;7.87;5.67;;;2.90;99.90;;;;;;5080558;28;20488;-84
2020/12/20 07:24:09;;;;;;;9.23;4.90;;;3.00;99.90;;;;;;5079856;28;20414;-83
2020/12/20 07:26:35;;;;;;;5.93;4.90;;;2.90;99.90;;;;;;5081865;28;20874;-84
2020/12/20 07:29:03;;;;;;;6.90;5.27;;;2.80;99.90;;;;;;5080632;28;20432;-83
2020/12/20 07:31:30;;;;;;;8.30;6.90;;;2.90;99.90;;;;;;5063313;28;20156;-83
2020/12/20 07:33:57;;;;;;;7.90;6.40;;;2.70;99.90;;;;;;5080205;28;20473;-84
2020/12/20 07:36:24;;;;;;;8.00;6.50;;;3.00;99.90;;;;;;5083160;28;20937;-83
2020/12/20 07:38:50;;;;;;;6.87;5.60;;;3.10;99.90;;;;;;5084655;28;20357;-84
2020/12/20 07:41:16;;;;;;;13.10;7.20;;;3.10;99.90;;;;;;5062924;28;20360;-84
2020/12/20 07:43:43;;;;;;;8.60;6.70;;;3.00;99.90;;;;;;5077842;28;20481;-84
2020/12/20 07:46:11;;;;;;;5.40;4.87;;;3.10;99.90;;;;;;5078904;28;20922;-82
2020/12/20 07:48:38;;;;;;;16.23;5.97;;;3.00;99.90;;;;;;5078960;28;20390;-82
2020/12/20 07:51:11;;;;;;;10.20;6.93;;;3.10;99.90;;;;;;5079449;28;20853;-84
2020/12/20 07:54:00;;;;;;;8.50;5.43;;;3.10;99.90;;;;;;5079568;28;20397;-83
2020/12/20 07:56:29;;;;;;;7.70;5.70;;;3.10;99.90;;;;;;5081543;28;20413;-82
2020/12/20 07:58:58;;;;;;;7.77;5.90;;;2.90;99.90;;;;;;5081539;28;20398;-84
2020/12/20 08:01:25;;;;;;;8.47;5.20;;;2.80;99.90;;;;;;5092666;28;20421;-84
2020/12/20 08:04:02;;;;;;;8.93;5.83;;;2.90;99.90;;;;;;5090181;28;20753;-84
2020/12/20 08:06:28;;;;;;;5.90;5.30;;;2.90;99.90;;;;;;5080659;28;20536;-85
2020/12/20 08:09:03;;;;;;;8.83;5.50;;;2.90;99.90;;;;;;5062626;28;20457;-84
2020/12/20 08:11:30;;;;;;;10.23;5.53;;;2.60;99.90;;;;;;5081039;28;20472;-84
2020/12/20 08:14:00;;;;;;;9.40;6.10;;;2.70;99.90;;;;;;5081216;28;20409;-84
2020/12/20 08:16:29;;;;;;;8.67;6.27;;;2.70;99.90;;;;;;5080679;28;20424;-84
2020/12/20 08:19:01;;;;;;;12.10;6.57;;;2.70;99.90;;;;;;5079943;28;20376;-84
2020/12/20 08:21:49;;;;;;;7.87;7.00;;;2.60;99.90;;;;;;5080219;28;20469;-84
2020/12/20 08:24:17;;;;;;;8.40;4.67;;;2.60;99.90;;;;;;5079845;28;20894;-84
2020/12/20 08:26:45;;;;;;;8.70;5.57;;;2.80;99.90;;;;;;5080658;28;20382;-84
2020/12/20 08:29:13;;;;;;;6.63;5.23;;;2.70;99.90;;;;;;5062243;28;20404;-84
2020/12/20 08:31:40;;;;;;;10.60;5.50;;;2.90;99.90;;;;;;5063678;28;20517;-84
2020/12/20 08:34:17;;;;;;;8.37;6.07;;;2.80;99.90;;;;;;5083712;28;20416;-84
2020/12/20 08:36:44;;;;;;;7.37;6.40;;;2.70;99.90;;;;;;5085277;28;20412;-84
2020/12/20 08:39:10;;;;;;;7.20;5.10;;;3.00;99.90;;;;;;5064232;28;20866;-84
2020/12/20 08:41:36;;;;;;;6.83;4.53;;;3.00;99.90;;;;;;5079807;28;20400;-83
2020/12/20 08:44:05;;;;;;;10.20;6.00;;;3.00;99.90;;;;;;5063203;28;20890;-84
2020/12/20 08:46:34;;;;;;;5.97;5.10;;;3.10;99.90;;;;;;5080465;28;20416;-83
2020/12/20 08:49:15;;;;;;;8.80;6.30;;;3.20;99.90;;;;;;5063091;28;20432;-85
2020/12/20 08:51:42;;;;;;;6.97;5.10;;;3.30;99.90;;;;;;5079701;28;20724;-84
2020/12/20 08:54:11;;;;;;;7.80;6.10;;;3.40;99.90;;;;;;5044280;28;20394;-83
2020/12/20 08:56:52;;;;;;;8.70;5.23;;;3.40;99.90;;;;;;5078401;28;20467;-83
2020/12/20 08:59:27;;;;;;;7.83;5.20;;;3.30;99.90;;;;;;5044354;28;20392;-84
2020/12/20 09:01:54;;;;;;;10.13;5.90;;;3.20;99.90;;;;;;5060861;28;20393;-84
2020/12/20 09:04:19;;;;;;;8.60;6.87;;;3.40;99.90;;;;;;5060444;28;20413;-84
2020/12/20 09:07:02;;;;;;;9.23;5.60;;;3.40;99.90;;;;;;5078475;28;20155;-83
2020/12/20 09:09:28;;;;;;;8.40;5.90;;;3.40;99.90;;;;;;5079347;28;20222;-84
2020/12/20 09:12:08;;;;;;;8.93;5.70;;;3.20;99.90;;;;;;5079883;28;20773;-84
2020/12/20 09:14:34;;;;;;;6.57;5.57;;;3.30;99.90;;;;;;5079766;28;20402;-83
2020/12/20 09:16:59;;;;;;;8.10;5.83;;;3.20;99.90;;;;;;5078792;28;20420;-83
2020/12/20 09:19:25;;;;;;;8.23;6.00;;;3.40;99.90;;;;;;5078942;28;20632;-84
2020/12/20 09:21:51;;;;;;;8.20;5.37;;;3.30;99.90;;;;;;5060889;28;20297;-82
2020/12/20 09:24:17;;;;;;;7.17;5.43;;;3.10;99.90;;;;;;5078516;28;20164;-84
2020/12/20 09:26:55;;;;;;;10.97;5.90;;;3.30;99.90;;;;;;5061254;28;20163;-85
2020/12/20 09:29:21;;;;;;;5.77;5.07;;;3.20;99.90;;;;;;5077948;28;20174;-84
2020/12/20 09:31:48;;;;;;;8.97;5.30;;;3.20;99.90;;;;;;5077438;28;20403;-83
2020/12/20 09:34:17;;;;;;;8.87;5.80;;;3.20;99.90;;;;;;5077570;28;20172;-84
2020/12/20 09:36:43;;;;;;;9.33;5.10;;;3.20;99.90;;;;;;5078195;28;20490;-83
2020/12/20 09:39:08;;;;;;;8.50;6.00;;;3.30;99.90;;;;;;5078531;28;20423;-83
2020/12/20 09:41:35;;;;;;;9.93;5.63;;;3.40;99.90;;;;;;5078422;28;20515;-84
2020/12/20 09:44:01;;;;;;;6.63;5.70;;;3.40;99.90;;;;;;5078148;28;20155;-83
2020/12/20 09:46:29;;;;;;;9.43;5.33;;;3.50;99.90;;;;;;5060088;28;20452;-83
2020/12/20 09:48:56;;;;;;;9.27;7.03;;;3.30;99.90;;;;;;5079381;28;20167;-83
2020/12/20 09:51:23;;;;;;;8.23;6.50;;;3.10;99.90;;;;;;5078171;28;20493;-83
2020/12/20 09:53:50;;;;;;;7.73;5.37;;;3.20;99.90;;;;;;5045519;28;20401;-83
2020/12/20 09:56:17;;;;;;;9.23;5.70;;;3.30;99.90;;;;;;5063019;28;20452;-82
2020/12/20 09:58:43;;;;;;;6.80;5.37;;;3.10;99.90;;;;;;5080809;28;20393;-83
2020/12/20 10:01:25;;;;;;;8.03;6.10;;;3.30;99.90;;;;;;5081436;28;20405;-83
2020/12/20 10:03:54;;;;;;;7.30;6.33;;;3.30;99.90;;;;;;5079933;28;20492;-83
2020/12/20 10:06:20;;;;;;;9.23;5.90;;;3.30;99.90;;;;;;5039048;28;20806;-83
2020/12/20 10:08:46;;;;;;;7.90;5.90;;;3.40;99.90;;;;;;5009381;28;20756;-82
2020/12/20 10:11:17;;;;;;;8.20;6.60;;;3.30;99.90;;;;;;5026375;28;20490;-84
2020/12/20 10:13:43;;;;;;;7.23;4.93;;;3.50;99.90;;;;;;5041712;28;20419;-83
2020/12/20 10:16:09;;;;;;;6.40;5.70;;;3.30;99.90;;;;;;5043459;28;20818;-84
2020/12/20 10:18:35;;;;;;;6.20;5.37;;;3.40;99.90;;;;;;5011749;28;20403;-85
2020/12/20 10:21:03;;;;;;;9.07;6.57;;;3.60;99.90;;;;;;4998157;28;20227;-84
2020/12/20 10:23:29;;;;;;;9.17;6.07;;;3.40;99.90;;;;;;5035284;28;20157;-84
2020/12/20 10:25:55;;;;;;;9.10;5.83;;;3.40;99.90;;;;;;5057211;28;20466;-82
2020/12/20 10:28:21;;;;;;;11.63;6.60;;;3.60;99.90;;;;;;5057198;28;20183;-83
2020/12/20 10:30:46;;;;;;;12.20;6.83;;;3.40;99.90;;;;;;5046586;28;20177;-84
2020/12/20 10:33:14;;;;;;;6.10;5.60;;;3.50;99.90;;;;;;5026666;28;20169;-84
2020/12/20 10:35:40;;;;;;;9.17;6.53;;;3.40;99.90;;;;;;5039642;28;20234;-83
2020/12/20 10:38:06;;;;;;;15.63;6.03;;;3.40;99.90;;;;;;5075936;28;20516;-82
2020/12/20 10:40:35;;;;;;;7.50;6.77;;;3.60;99.90;;;;;;5081666;28;20170;-82
2020/12/20 10:43:06;;;;;;;10.27;6.97;;;3.60;99.90;;;;;;5054817;28;20172;-84
2020/12/20 10:45:32;;;;;;;7.03;5.17;;;3.60;99.90;;;;;;5002250;28;20455;-83
2020/12/20 10:47:57;;;;;;;7.90;5.47;;;3.70;99.90;;;;;;5039057;28;20931;-82
2020/12/20 10:50:23;;;;;;;6.77;5.57;;;3.80;99.90;;;;;;5038801;28;20215;-83
2020/12/20 10:52:49;;;;;;;9.33;6.00;;;4.10;99.90;;;;;;5021717;28;20631;-83
2020/12/20 10:55:15;;;;;;;6.87;5.50;;;4.20;99.90;;;;;;5038974;28;20184;-84
2020/12/20 10:57:41;;;;;;;5.97;5.30;;;4.30;99.90;;;;;;5022788;28;20175;-82
2020/12/20 11:00:06;;;;;;;11.77;6.60;;;4.50;99.90;;;;;;5006561;28;20670;-83
2020/12/20 11:02:33;;;;;;;7.73;5.10;;;4.50;99.90;;;;;;5023079;28;20311;-84
2020/12/20 11:04:59;;;;;;;7.83;4.50;;;4.30;99.90;;;;;;5040367;28;20563;-82
2020/12/20 11:07:24;;;;;;;5.83;5.20;;;4.40;99.90;;;;;;5039023;28;20479;-83
2020/12/20 11:09:50;;;;;;;8.97;6.00;;;4.70;99.90;;;;;;5046299;28;20413;-83
2020/12/20 11:12:16;;;;;;;9.30;6.57;;;4.90;99.90;;;;;;5034248;28;20216;-83
2020/12/20 11:14:42;;;;;;;8.27;5.70;;;4.40;99.90;;;;;;5049715;28;20224;-84
2020/12/20 11:17:08;;;;;;;8.33;5.83;;;4.60;99.90;;;;;;5081578;28;20183;-84
2020/12/20 11:19:34;;;;;;;11.73;8.73;;;4.80;99.90;;;;;;5090493;28;20332;-83
2020/12/20 11:22:00;;;;;;;12.20;7.60;;;4.90;99.90;;;;;;5082319;28;20909;-84
2020/12/20 11:24:26;;;;;;;9.87;7.07;;;5.00;99.90;;;;;;5080616;28;20604;-83
2020/12/20 11:26:54;;;;;;;9.63;5.93;;;4.70;99.90;;;;;;5080216;28;20164;-84
2020/12/20 11:29:21;;;;;;;7.53;6.60;;;5.00;99.90;;;;;;5062177;28;20159;-84
2020/12/20 11:31:47;;;;;;;6.90;6.20;;;5.30;99.90;;;;;;5063769;28;20398;-84
2020/12/20 11:34:14;;;;;;;9.10;6.57;;;5.50;99.90;;;;;;5082726;28;20398;-84
2020/12/20 11:36:40;;;;;;;8.17;5.90;;;5.70;99.90;;;;;;5082481;28;20451;-84
2020/12/20 11:39:08;;;;;;;11.57;7.10;;;6.00;99.90;;;;;;5089585;28;20398;-83
2020/12/20 11:41:34;;;;;;;7.90;6.40;;;6.40;99.90;;;;;;5071097;28;20397;-83
2020/12/20 11:44:00;;;;;;;6.47;5.33;;;6.20;99.90;;;;;;5077076;28;20398;-81
2020/12/20 11:46:27;;;;;;;8.80;6.30;;;6.40;99.90;;;;;;5096976;28;20199;-83
2020/12/20 11:48:53;;;;;;;9.60;6.30;;;6.00;99.90;;;;;;5080383;28;20414;-83
2020/12/20 11:51:21;;;;;;;7.20;6.43;;;6.00;99.90;;;;;;5090950;28;20453;-84
2020/12/20 11:53:47;;;;;;;7.40;5.70;;;5.40;99.90;;;;;;5081972;28;20390;-84
2020/12/20 11:56:15;;;;;;;7.67;5.60;;;6.10;99.90;;;;;;5081462;28;20405;-84
2020/12/20 11:58:42;;;;;;;9.27;6.83;;;5.90;99.90;;;;;;5081704;28;20401;-84
2020/12/20 12:01:08;;;;;;;5.83;5.20;;;6.00;99.90;;;;;;5081245;28;20405;-84
2020/12/20 12:03:34;;;;;;;9.80;6.87;;;6.00;99.90;;;;;;5080701;28;20397;-84
2020/12/20 12:06:01;;;;;;;7.73;6.57;;;6.40;99.90;;;;;;5080383;28;20336;-84
2020/12/20 12:08:27;;;;;;;7.03;6.33;;;5.80;99.90;;;;;;5062529;28;20401;-84
2020/12/20 12:10:54;;;;;;;8.13;5.90;;;6.30;99.90;;;;;;5037942;28;20469;-84
2020/12/20 12:13:20;;;;;;;9.20;6.00;;;5.60;99.90;;;;;;5037874;28;20915;-84
2020/12/20 12:15:47;;;;;;;8.83;7.27;;;5.70;99.90;;;;;;5020873;28;20390;-85
2020/12/20 12:18:13;;;;;;;15.40;7.67;;;5.50;99.90;;;;;;5038219;28;20393;-83
2020/12/20 12:20:39;;;;;;;7.70;6.50;;;5.80;99.90;;;;;;5041122;28;20467;-81
2020/12/20 12:23:06;;;;;;;10.27;6.60;;;5.50;99.90;;;;;;5041352;28;20395;-82
2020/12/20 12:25:32;;;;;;;7.83;6.57;;;5.50;99.90;;;;;;5039309;28;20429;-85
2020/12/20 12:27:58;;;;;;;6.93;5.47;;;5.70;99.90;;;;;;5005463;28;20367;-84
2020/12/20 12:30:26;;;;;;;11.03;6.60;;;5.90;99.90;;;;;;5037896;28;20576;-84
2020/12/20 12:32:52;;;;;;;9.20;6.27;;;6.00;99.90;;;;;;5021846;28;20378;-84
2020/12/20 12:35:21;;;;;;;8.33;6.10;;;6.20;99.90;;;;;;5041592;28;20399;-84
2020/12/20 12:37:47;;;;;;;9.90;5.77;;;6.20;99.90;;;;;;5038553;28;20405;-84
2020/12/20 12:40:13;;;;;;;8.70;7.47;;;5.90;99.90;;;;;;5038485;28;20410;-83
2020/12/20 12:42:41;;;;;;;7.33;5.70;;;5.90;99.90;;;;;;5074083;28;20444;-84
2020/12/20 12:45:07;;;;;;;8.50;5.90;;;5.60;99.90;;;;;;5080690;28;20452;-84
2020/12/20 12:47:33;;;;;;;8.43;6.30;;;5.60;99.90;;;;;;5079458;28;20780;-83
2020/12/20 12:49:58;;;;;;;7.57;6.03;;;5.60;99.90;;;;;;5079560;28;20592;-84
2020/12/20 12:52:25;;;;;;;9.87;6.83;;;5.50;99.90;;;;;;5080266;28;20250;-83
2020/12/20 12:54:53;;;;;;;8.13;6.23;;;5.60;99.90;;;;;;5048013;28;20159;-84
2020/12/20 12:57:20;;;;;;;13.80;7.90;;;5.60;99.90;;;;;;5082490;28;20858;-84
2020/12/20 12:59:45;;;;;;;9.90;5.77;;;5.60;99.90;;;;;;5082167;28;20402;-84